Time;durP1;ratioP1;P1;durP2;ratioP2;P2;SDS_P1;SDS_P2;PMS_P1;PMS_P2;Temp;Humidity;BMP_temperature;BMP_pressure;BME280_temperature;BME280_humidity;BME280_pressure;Samples;Min_cycle;Max_cycle;Signal;HPM_P1;HPM_P2
2022/01/30 00:00:46;;;;;;;12.97;7.77;;;7.00;99.90;;;;;;5053967;28;20179;-67
2022/01/30 00:03:12;;;;;;;9.80;8.87;;;6.90;99.90;;;;;;5053862;28;20581;-64
2022/01/30 00:05:38;;;;;;;11.40;8.57;;;6.90;99.90;;;;;;5072952;28;20261;-67
2022/01/30 00:08:04;;;;;;;10.77;9.20;;;6.90;99.90;;;;;;5073792;28;20619;-67
2022/01/30 00:10:36;;;;;;;8.77;7.93;;;6.90;99.90;;;;;;5054306;28;20178;-66
2022/01/30 00:13:03;;;;;;;13.70;8.70;;;6.80;99.90;;;;;;5053432;28;20232;-67
2022/01/30 00:16:06;;;;;;;16.20;8.87;;;6.80;99.90;;;;;;5072297;28;20663;-66
2022/01/30 00:21:06;;;;;;;14.10;8.60;;;6.70;99.90;;;;;;5073227;28;20656;-65
2022/01/30 00:23:35;;;;;;;13.27;7.17;;;6.70;99.90;;;;;;5071475;28;20539;-67
2022/01/30 00:26:03;;;;;;;13.60;8.53;;;6.60;99.90;;;;;;5053691;28;20307;-67
2022/01/30 00:28:32;;;;;;;13.70;7.73;;;6.60;99.90;;;;;;5035460;28;20179;-67
2022/01/30 00:30:57;;;;;;;12.83;7.90;;;6.50;99.90;;;;;;5073323;28;20178;-67
2022/01/30 00:33:23;;;;;;;15.37;8.50;;;6.50;99.90;;;;;;5073033;28;20244;-67
2022/01/30 00:35:49;;;;;;;17.77;9.07;;;6.40;99.90;;;;;;5053655;28;20249;-67
2022/01/30 00:38:16;;;;;;;12.27;8.00;;;6.40;99.90;;;;;;5053877;28;20170;-67
2022/01/30 00:40:43;;;;;;;19.60;9.57;;;6.30;99.90;;;;;;5064295;28;20253;-66
2022/01/30 00:43:09;;;;;;;21.47;11.43;;;6.30;99.90;;;;;;5052953;28;20181;-66
2022/01/30 00:45:35;;;;;;;14.67;8.80;;;6.20;99.90;;;;;;5062347;28;20224;-66
2022/01/30 00:48:02;;;;;;;18.87;8.67;;;6.10;99.90;;;;;;5056490;28;20220;-66
2022/01/30 00:50:28;;;;;;;11.13;8.10;;;6.10;99.90;;;;;;5072993;28;20177;-66
2022/01/30 00:52:55;;;;;;;8.27;7.53;;;6.10;99.90;;;;;;5054882;28;20187;-67
2022/01/30 00:55:23;;;;;;;20.20;8.77;;;6.10;99.90;;;;;;5054200;28;20198;-66
2022/01/30 00:57:48;;;;;;;18.57;9.77;;;6.00;99.90;;;;;;5070902;28;20181;-67
2022/01/30 01:00:15;;;;;;;8.53;7.57;;;6.00;99.90;;;;;;5073036;28;20208;-66
2022/01/30 01:02:41;;;;;;;15.23;7.80;;;6.00;99.90;;;;;;5058003;28;20171;-67
2022/01/30 01:05:08;;;;;;;14.70;8.73;;;5.90;99.90;;;;;;5052262;28;20241;-66
2022/01/30 01:07:35;;;;;;;19.50;8.93;;;5.80;99.90;;;;;;5065364;28;20185;-66
2022/01/30 01:13:09;;;;;;;12.27;8.40;;;5.80;99.90;;;;;;5057392;28;20183;-66
2022/01/30 01:23:52;;;;;;;13.57;7.40;;;5.60;99.90;;;;;;5051415;28;20614;-66
2022/01/30 01:26:19;;;;;;;12.93;7.90;;;5.60;99.90;;;;;;5051966;28;20582;-66
2022/01/30 01:28:45;;;;;;;7.80;7.00;;;5.70;99.90;;;;;;5071532;28;20178;-66
2022/01/30 01:31:10;;;;;;;18.60;7.83;;;5.70;99.90;;;;;;5071421;28;20666;-65
2022/01/30 01:36:21;;;;;;;18.23;8.93;;;5.70;99.90;;;;;;5051510;28;20231;-65
2022/01/30 01:38:47;;;;;;;11.97;8.23;;;5.70;99.90;;;;;;5058811;28;20301;-65
2022/01/30 01:41:17;;;;;;;8.10;7.50;;;5.70;99.90;;;;;;5071422;28;20667;-66
2022/01/30 01:43:43;;;;;;;12.07;9.53;;;5.70;99.90;;;;;;5051847;28;20270;-65
2022/01/30 01:46:15;;;;;;;14.57;8.17;;;5.70;99.90;;;;;;5051265;28;20282;-65
2022/01/30 01:48:42;;;;;;;13.23;7.93;;;5.60;99.90;;;;;;5067090;28;20199;-66
2022/01/30 01:51:17;;;;;;;11.47;7.77;;;5.60;99.90;;;;;;5091417;28;20262;-66
2022/01/30 01:53:43;;;;;;;20.23;9.13;;;5.60;99.90;;;;;;5091236;28;20172;-66
2022/01/30 01:56:09;;;;;;;13.10;8.93;;;5.60;99.90;;;;;;5073502;28;20682;-66
2022/01/30 01:58:35;;;;;;;11.97;8.13;;;5.60;99.90;;;;;;5071181;28;20209;-66
2022/01/30 02:01:02;;;;;;;10.90;8.20;;;5.60;99.90;;;;;;5055727;28;20187;-66
2022/01/30 02:03:28;;;;;;;12.97;8.33;;;5.50;99.90;;;;;;5050875;28;20171;-66
2022/01/30 02:05:58;;;;;;;8.50;7.70;;;5.50;99.90;;;;;;5046524;28;20216;-66
2022/01/30 02:11:02;;;;;;;7.90;7.37;;;5.40;99.90;;;;;;5057936;28;20191;-66
2022/01/30 02:13:48;;;;;;;10.17;8.80;;;5.50;99.90;;;;;;5050754;28;20262;-66
2022/01/30 02:27:00;;;;;;;11.30;7.03;;;5.70;99.90;;;;;;5051055;28;20175;-66
2022/01/30 02:29:26;;;;;;;13.23;8.00;;;5.70;99.90;;;;;;5064904;28;20235;-66
2022/01/30 02:31:55;;;;;;;8.67;7.50;;;5.70;99.90;;;;;;5070912;28;20171;-66
2022/01/30 02:34:26;;;;;;;12.53;7.90;;;5.70;99.90;;;;;;5051721;28;20203;-66
2022/01/30 02:36:52;;;;;;;8.03;7.13;;;5.70;99.90;;;;;;5051023;28;20633;-66
2022/01/30 02:39:19;;;;;;;10.53;6.97;;;5.70;99.90;;;;;;5068421;28;20202;-66
2022/01/30 02:41:45;;;;;;;17.67;7.80;;;5.70;99.90;;;;;;5070840;28;20198;-66
2022/01/30 02:46:44;;;;;;;11.70;8.97;;;5.70;99.90;;;;;;5050712;28;20175;-66
2022/01/30 02:49:26;;;;;;;8.13;6.80;;;5.70;99.90;;;;;;5066232;28;20178;-66
2022/01/30 02:54:20;;;;;;;16.27;6.80;;;5.60;99.90;;;;;;5061429;28;20254;-66
2022/01/30 02:56:46;;;;;;;15.23;8.83;;;5.50;99.90;;;;;;5074189;28;20235;-66
2022/01/30 02:59:12;;;;;;;7.97;7.37;;;5.50;99.90;;;;;;5068165;28;20290;-66
2022/01/30 03:01:38;;;;;;;14.67;8.20;;;5.40;99.90;;;;;;5054320;28;20260;-66
2022/01/30 03:04:05;;;;;;;12.73;8.67;;;5.40;99.90;;;;;;5057788;28;20638;-66
2022/01/30 03:06:31;;;;;;;10.27;7.73;;;5.40;99.90;;;;;;5074501;28;20202;-66
2022/01/30 03:08:57;;;;;;;8.33;7.47;;;5.40;99.90;;;;;;5071288;28;20239;-66
2022/01/30 03:11:23;;;;;;;14.10;8.83;;;5.40;99.90;;;;;;5053793;28;20183;-66
2022/01/30 03:13:49;;;;;;;8.73;7.37;;;5.30;99.90;;;;;;5054231;28;20667;-66
2022/01/30 03:16:16;;;;;;;10.40;7.47;;;5.30;99.90;;;;;;5073844;28;20213;-66
2022/01/30 03:18:43;;;;;;;9.17;8.03;;;5.30;99.90;;;;;;5073746;28;20240;-66
2022/01/30 03:21:08;;;;;;;8.37;7.73;;;5.30;99.90;;;;;;5054109;28;20210;-66
2022/01/30 03:23:38;;;;;;;11.47;7.60;;;5.30;99.90;;;;;;5053468;28;20217;-66
2022/01/30 03:26:05;;;;;;;11.10;7.40;;;5.20;99.90;;;;;;5054716;28;20281;-66
2022/01/30 03:28:32;;;;;;;11.50;8.23;;;5.20;99.90;;;;;;5053965;28;20171;-66
2022/01/30 03:31:02;;;;;;;19.03;10.40;;;5.20;99.90;;;;;;5070335;28;20631;-66
2022/01/30 03:33:28;;;;;;;14.87;7.57;;;5.20;99.90;;;;;;5073413;28;20213;-66
2022/01/30 03:35:54;;;;;;;8.93;8.10;;;5.20;99.90;;;;;;5057403;28;20302;-66
2022/01/30 03:38:21;;;;;;;16.13;8.27;;;5.30;99.90;;;;;;5053927;28;20571;-66
2022/01/30 03:40:48;;;;;;;8.93;7.60;;;5.30;99.90;;;;;;5067647;28;20186;-66
2022/01/30 03:43:13;;;;;;;12.53;7.80;;;5.40;99.90;;;;;;5055165;28;20264;-66
2022/01/30 03:45:39;;;;;;;15.83;7.47;;;5.50;99.90;;;;;;5060082;28;20282;-66
2022/01/30 03:48:05;;;;;;;11.83;7.53;;;5.50;99.90;;;;;;5053299;28;20177;-66
2022/01/30 03:50:31;;;;;;;12.27;8.40;;;5.50;99.90;;;;;;5063773;28;20189;-66
2022/01/30 03:52:57;;;;;;;14.10;7.93;;;5.50;99.90;;;;;;5067899;28;20687;-66
2022/01/30 03:55:23;;;;;;;16.30;7.13;;;5.50;99.90;;;;;;5053123;28;20202;-66
2022/01/30 03:57:50;;;;;;;21.03;7.90;;;5.50;99.90;;;;;;5055769;28;20184;-66
2022/01/30 04:00:16;;;;;;;10.47;8.30;;;5.50;99.90;;;;;;5073148;28;20563;-66
2022/01/30 04:02:42;;;;;;;10.47;9.30;;;5.40;99.90;;;;;;5065114;28;20246;-66
2022/01/30 04:05:09;;;;;;;12.83;8.23;;;5.40;99.90;;;;;;5053195;28;20190;-66
2022/01/30 04:07:35;;;;;;;18.30;8.03;;;5.40;99.90;;;;;;5053966;28;20524;-66
2022/01/30 04:10:03;;;;;;;11.90;7.97;;;5.40;99.90;;;;;;5034856;28;20201;-66
2022/01/30 04:12:29;;;;;;;9.07;7.83;;;5.50;99.90;;;;;;5060401;28;20640;-66
2022/01/30 04:14:55;;;;;;;18.50;8.17;;;5.50;99.90;;;;;;5054952;28;20267;-66
2022/01/30 04:17:21;;;;;;;11.13;9.00;;;5.50;99.90;;;;;;5065843;28;20190;-66
2022/01/30 04:19:48;;;;;;;9.33;8.30;;;5.60;99.90;;;;;;5052699;28;20214;-66
2022/01/30 04:22:13;;;;;;;12.07;8.50;;;5.70;99.90;;;;;;5038512;28;20214;-66
2022/01/30 04:24:39;;;;;;;8.87;8.07;;;5.70;99.90;;;;;;5072639;28;20190;-66
2022/01/30 04:27:05;;;;;;;8.67;8.10;;;5.60;99.90;;;;;;5069178;28;20261;-66
2022/01/30 04:29:31;;;;;;;10.27;9.07;;;5.60;99.90;;;;;;5052509;28;20178;-66
2022/01/30 04:31:58;;;;;;;7.53;7.10;;;5.60;99.90;;;;;;5071278;28;20184;-66
2022/01/30 04:34:24;;;;;;;12.90;8.67;;;5.50;99.90;;;;;;5072299;28;20198;-66
2022/01/30 04:37:01;;;;;;;10.37;8.17;;;5.50;99.90;;;;;;5054302;28;20296;-66
2022/01/30 04:59:45;;;;;;;8.40;7.33;;;5.40;99.90;;;;;;5061766;28;20203;-66
2022/01/30 05:09:26;;;;;;;8.17;7.37;;;5.60;99.90;;;;;;5056102;28;20178;-66
2022/01/30 05:11:52;;;;;;;8.03;7.43;;;5.70;99.90;;;;;;5051688;28;20249;-66
2022/01/30 05:14:21;;;;;;;16.83;7.30;;;5.70;99.90;;;;;;5046854;28;20213;-66
2022/01/30 05:16:47;;;;;;;8.00;7.37;;;5.70;99.90;;;;;;5071761;28;20174;-66
2022/01/30 05:19:13;;;;;;;10.37;8.50;;;5.70;99.90;;;;;;5058764;28;20214;-66
2022/01/30 05:21:39;;;;;;;8.90;8.03;;;5.60;99.90;;;;;;5051648;28;20178;-66
2022/01/30 05:24:05;;;;;;;12.10;7.60;;;5.60;99.90;;;;;;5052398;28;20179;-66
2022/01/30 05:26:32;;;;;;;7.33;6.73;;;5.50;99.90;;;;;;5051849;28;20620;-66
2022/01/30 05:28:58;;;;;;;12.27;8.97;;;5.40;99.90;;;;;;5060859;28;20209;-66
2022/01/30 05:31:24;;;;;;;8.33;7.47;;;5.30;99.90;;;;;;5071560;28;20239;-66
2022/01/30 05:33:50;;;;;;;9.17;7.63;;;5.30;99.90;;;;;;5063233;28;20671;-66
2022/01/30 05:36:15;;;;;;;16.53;7.87;;;5.20;99.90;;;;;;5051483;28;20194;-66
2022/01/30 05:38:41;;;;;;;8.70;7.83;;;5.10;99.90;;;;;;5057234;28;20260;-66
2022/01/30 05:41:07;;;;;;;9.20;7.50;;;5.10;99.90;;;;;;5071758;28;20166;-66
2022/01/30 05:43:34;;;;;;;9.30;8.40;;;5.00;99.90;;;;;;5066757;28;20197;-66
2022/01/30 05:46:12;;;;;;;10.63;7.40;;;5.00;99.90;;;;;;5051920;28;20221;-67
2022/01/30 05:48:38;;;;;;;24.13;9.17;;;4.90;99.90;;;;;;5056066;28;20178;-66
2022/01/30 05:51:04;;;;;;;8.93;7.00;;;4.90;99.90;;;;;;5068884;28;20178;-67
2022/01/30 05:53:30;;;;;;;11.30;8.57;;;4.80;99.90;;;;;;5051181;28;20194;-66
2022/01/30 05:55:56;;;;;;;9.53;8.73;;;4.80;99.90;;;;;;5052216;28;20230;-66
2022/01/30 05:58:21;;;;;;;15.70;8.83;;;4.80;99.90;;;;;;5071458;28;20198;-66
2022/01/30 06:00:47;;;;;;;7.93;7.20;;;4.80;99.90;;;;;;5071396;28;20171;-66
2022/01/30 06:03:12;;;;;;;12.60;7.73;;;4.80;99.90;;;;;;5051939;28;20175;-66
2022/01/30 06:05:39;;;;;;;8.97;7.60;;;4.80;99.90;;;;;;5051345;28;20218;-69
2022/01/30 06:08:14;;;;;;;7.67;6.93;;;4.80;99.90;;;;;;5069019;28;20174;-66
2022/01/30 06:10:40;;;;;;;10.03;7.77;;;4.80;99.90;;;;;;5071556;28;20172;-66
2022/01/30 06:13:05;;;;;;;11.87;7.27;;;4.80;99.90;;;;;;5053752;28;20194;-67
2022/01/30 06:15:31;;;;;;;12.47;7.77;;;4.80;99.90;;;;;;5051006;28;20219;-67
2022/01/30 06:17:56;;;;;;;10.30;7.80;;;4.80;99.90;;;;;;5052544;28;20183;-67
2022/01/30 06:20:22;;;;;;;14.23;7.80;;;4.70;99.90;;;;;;5051301;28;20290;-66
2022/01/30 06:22:48;;;;;;;9.10;7.93;;;4.70;99.90;;;;;;5052291;28;20625;-66
2022/01/30 06:25:14;;;;;;;12.63;7.77;;;4.60;99.90;;;;;;5051110;28;20224;-67
2022/01/30 06:27:40;;;;;;;10.90;8.47;;;4.70;99.90;;;;;;5066070;28;20201;-66
2022/01/30 06:30:07;;;;;;;7.70;7.00;;;4.60;99.90;;;;;;5057154;28;20546;-67
2022/01/30 06:32:33;;;;;;;8.60;7.80;;;4.60;99.90;;;;;;5064249;28;20179;-66
2022/01/30 06:34:58;;;;;;;7.90;7.30;;;4.60;99.90;;;;;;5036797;28;20213;-65
2022/01/30 06:37:24;;;;;;;8.07;7.10;;;4.60;99.90;;;;;;5063074;28;20216;-65
2022/01/30 06:39:50;;;;;;;16.27;7.90;;;4.60;99.90;;;;;;5056713;28;20623;-65
2022/01/30 06:42:15;;;;;;;7.27;6.87;;;4.70;99.90;;;;;;5067543;28;20655;-66
2022/01/30 06:44:43;;;;;;;8.33;7.43;;;4.70;99.90;;;;;;5059222;28;20604;-66
2022/01/30 06:47:09;;;;;;;10.10;7.37;;;4.80;99.90;;;;;;5072986;28;20385;-66
2022/01/30 06:49:35;;;;;;;15.07;9.00;;;4.90;99.90;;;;;;5061099;28;20662;-65
2022/01/30 06:52:01;;;;;;;13.03;8.60;;;4.90;99.90;;;;;;5054194;28;20265;-66
2022/01/30 06:54:27;;;;;;;11.10;7.83;;;5.00;99.90;;;;;;5064958;28;20209;-66
2022/01/30 06:56:53;;;;;;;12.93;7.70;;;5.00;99.90;;;;;;5074134;28;20239;-66
2022/01/30 06:59:18;;;;;;;13.30;7.97;;;5.10;99.90;;;;;;5064660;28;20692;-66
2022/01/30 07:01:44;;;;;;;11.33;8.30;;;5.10;99.90;;;;;;5054075;28;20285;-66
2022/01/30 07:04:10;;;;;;;8.13;7.60;;;5.20;99.90;;;;;;5061049;28;20636;-66
2022/01/30 07:06:35;;;;;;;11.47;7.37;;;5.20;99.90;;;;;;5074296;28;20178;-65
2022/01/30 07:09:01;;;;;;;12.90;8.83;;;5.20;99.90;;;;;;5068211;28;20187;-65
2022/01/30 07:11:26;;;;;;;11.97;9.00;;;5.20;99.90;;;;;;5053910;28;20250;-66
2022/01/30 07:13:52;;;;;;;11.00;8.40;;;5.20;99.90;;;;;;5069536;28;20180;-65
2022/01/30 07:16:18;;;;;;;10.67;8.03;;;5.20;99.90;;;;;;5074387;28;20205;-66
2022/01/30 07:18:43;;;;;;;12.53;8.00;;;5.10;99.90;;;;;;5043448;28;20577;-66
2022/01/30 07:21:09;;;;;;;16.50;8.20;;;5.10;99.90;;;;;;5054819;28;20181;-67
2022/01/30 07:23:37;;;;;;;15.67;8.13;;;5.10;99.90;;;;;;5066362;28;20166;-67
2022/01/30 07:26:03;;;;;;;8.90;7.70;;;5.10;99.90;;;;;;5074033;28;20657;-66
2022/01/30 07:28:29;;;;;;;10.23;7.03;;;5.10;99.90;;;;;;5069402;28;20228;-67
2022/01/30 07:30:55;;;;;;;15.47;7.90;;;5.20;99.90;;;;;;5055814;28;20178;-66
2022/01/30 07:33:21;;;;;;;9.17;7.57;;;5.20;99.90;;;;;;5059999;28;20548;-67
2022/01/30 07:35:46;;;;;;;9.63;7.57;;;5.20;99.90;;;;;;5053696;28;20190;-66
2022/01/30 07:38:13;;;;;;;8.73;7.10;;;5.20;99.90;;;;;;5062399;28;20515;-66
2022/01/30 07:40:39;;;;;;;12.63;7.87;;;5.20;99.90;;;;;;5035539;28;20199;-66
2022/01/30 07:43:04;;;;;;;7.93;7.23;;;5.20;99.90;;;;;;5062940;28;20177;-67
2022/01/30 07:45:30;;;;;;;12.33;8.07;;;5.20;99.90;;;;;;5055615;28;20539;-65
2022/01/30 07:47:55;;;;;;;8.57;7.30;;;5.10;99.90;;;;;;5047295;28;20182;-67
2022/01/30 07:50:21;;;;;;;12.50;7.97;;;5.10;99.90;;;;;;5053570;28;20175;-67
2022/01/30 07:52:47;;;;;;;9.00;7.43;;;5.20;99.90;;;;;;5058792;28;20181;-66
2022/01/30 07:55:12;;;;;;;10.90;7.63;;;5.20;99.90;;;;;;5073300;28;20194;-65
2022/01/30 07:57:38;;;;;;;9.00;7.30;;;5.20;99.90;;;;;;5057324;28;20383;-67
2022/01/30 08:00:05;;;;;;;8.83;8.23;;;5.20;99.90;;;;;;5053328;28;20698;-67
2022/01/30 08:02:30;;;;;;;13.47;8.70;;;5.30;99.90;;;;;;5053243;28;20711;-67
2022/01/30 08:04:56;;;;;;;19.07;8.37;;;5.30;99.90;;;;;;5053029;28;20218;-67
2022/01/30 08:07:22;;;;;;;10.87;8.10;;;5.40;99.90;;;;;;5065598;28;20647;-66
2022/01/30 08:09:48;;;;;;;10.83;8.13;;;5.40;99.90;;;;;;5072972;28;20583;-67
2022/01/30 08:12:13;;;;;;;10.27;8.17;;;5.40;99.90;;;;;;5061541;28;20214;-67
2022/01/30 08:14:39;;;;;;;9.37;8.10;;;5.30;99.90;;;;;;5052992;28;20211;-66
2022/01/30 08:17:05;;;;;;;17.20;8.20;;;5.30;99.90;;;;;;5043876;28;20186;-67
2022/01/30 08:19:30;;;;;;;7.87;7.17;;;5.30;99.90;;;;;;5072752;28;20762;-67
2022/01/30 08:21:57;;;;;;;12.30;8.00;;;5.20;99.90;;;;;;5071011;28;20170;-67
2022/01/30 08:24:24;;;;;;;9.17;7.20;;;5.40;99.90;;;;;;5054912;28;20194;-67
2022/01/30 08:26:52;;;;;;;8.60;7.70;;;5.40;99.90;;;;;;5067278;28;20175;-66
2022/01/30 08:29:18;;;;;;;8.97;7.70;;;5.50;99.90;;;;;;5047327;28;20283;-66
2022/01/30 08:31:44;;;;;;;7.47;6.87;;;5.50;99.90;;;;;;5070846;28;20265;-66
2022/01/30 08:34:09;;;;;;;12.43;7.83;;;5.40;99.90;;;;;;5081940;28;20182;-64
2022/01/30 08:36:35;;;;;;;7.30;6.70;;;5.50;99.90;;;;;;5091192;28;20282;-65
2022/01/30 08:39:00;;;;;;;12.23;6.90;;;5.60;99.90;;;;;;5071988;28;20566;-65
2022/01/30 08:41:26;;;;;;;15.87;7.57;;;5.80;99.90;;;;;;5067997;28;20673;-65
2022/01/30 08:43:52;;;;;;;15.10;6.97;;;6.10;99.90;;;;;;5043951;28;20193;-67
2022/01/30 08:46:20;;;;;;;10.00;7.53;;;6.30;99.90;;;;;;5090128;28;20189;-65
2022/01/30 08:48:45;;;;;;;14.43;7.53;;;6.50;99.90;;;;;;5086844;28;20266;-66
2022/01/30 08:51:11;;;;;;;8.33;7.40;;;6.70;99.90;;;;;;5072317;28;20201;-65
2022/01/30 08:53:37;;;;;;;13.77;6.73;;;6.80;99.90;;;;;;5053062;28;20224;-66
2022/01/30 08:56:02;;;;;;;12.20;6.50;;;7.00;99.90;;;;;;5069371;28;20614;-65
2022/01/30 08:58:29;;;;;;;9.77;7.07;;;7.20;99.90;;;;;;5034448;28;20187;-65
2022/01/30 09:00:55;;;;;;;10.60;7.20;;;7.40;99.90;;;;;;5056974;28;20187;-64
2022/01/30 09:03:21;;;;;;;8.33;7.70;;;7.50;99.90;;;;;;5051758;28;20249;-66
2022/01/30 09:05:46;;;;;;;8.80;7.23;;;7.40;99.90;;;;;;5052761;28;20195;-66
2022/01/30 09:08:13;;;;;;;8.30;6.70;;;7.30;99.90;;;;;;5051924;28;20541;-65
2022/01/30 09:10:39;;;;;;;11.37;6.90;;;7.50;99.90;;;;;;5036749;28;20214;-66
2022/01/30 09:13:05;;;;;;;13.63;9.77;;;7.60;99.90;;;;;;5071755;28;20659;-66
2022/01/30 09:15:38;;;;;;;12.23;7.67;;;7.40;99.90;;;;;;5059030;28;20205;-66
2022/01/30 09:18:08;;;;;;;13.63;7.23;;;7.20;99.90;;;;;;5038919;28;20202;-66
2022/01/30 09:20:39;;;;;;;11.03;7.80;;;7.10;99.90;;;;;;5051688;28;20198;-66
2022/01/30 09:23:05;;;;;;;7.57;6.90;;;7.00;99.90;;;;;;5062095;28;20213;-66
2022/01/30 09:25:30;;;;;;;15.17;7.63;;;6.90;99.90;;;;;;5066555;28;20222;-66
2022/01/30 09:27:56;;;;;;;8.83;7.27;;;6.80;99.90;;;;;;5068412;28;20190;-66
2022/01/30 09:30:22;;;;;;;25.77;9.70;;;6.80;99.90;;;;;;5053398;28;20198;-66
2022/01/30 09:32:48;;;;;;;16.13;7.67;;;6.70;99.90;;;;;;5034365;28;20174;-65
2022/01/30 09:35:14;;;;;;;14.83;7.87;;;6.70;99.90;;;;;;5064240;28;20624;-65
2022/01/30 09:37:39;;;;;;;10.97;7.03;;;6.70;99.90;;;;;;5068495;28;20265;-66
2022/01/30 09:40:06;;;;;;;10.90;7.50;;;6.60;99.90;;;;;;5054315;28;20208;-65
2022/01/30 09:42:32;;;;;;;12.97;7.60;;;6.70;99.90;;;;;;5064306;28;20178;-65
2022/01/30 09:45:03;;;;;;;9.30;6.77;;;6.80;99.90;;;;;;5048475;28;20206;-65
2022/01/30 09:47:30;;;;;;;7.60;6.80;;;6.90;99.90;;;;;;5051048;28;20175;-65
2022/01/30 09:49:58;;;;;;;15.17;6.87;;;7.10;99.90;;;;;;5035795;28;20189;-67
2022/01/30 09:52:24;;;;;;;8.23;7.10;;;7.20;99.90;;;;;;5071121;28;20188;-65
2022/01/30 09:54:49;;;;;;;7.17;6.53;;;7.30;99.90;;;;;;5061081;28;20207;-65
2022/01/30 09:57:15;;;;;;;9.00;6.83;;;7.20;99.90;;;;;;5051326;28;20174;-65
2022/01/30 09:59:41;;;;;;;11.37;7.10;;;7.20;99.90;;;;;;5058557;28;20268;-66
2022/01/30 10:02:09;;;;;;;9.03;6.70;;;7.60;99.90;;;;;;5056662;28;20179;-65
2022/01/30 10:04:35;;;;;;;11.13;7.30;;;7.70;99.90;;;;;;5054619;28;20269;-66
2022/01/30 10:07:11;;;;;;;7.83;7.07;;;7.70;99.90;;;;;;5055269;28;20284;-66
2022/01/30 10:09:43;;;;;;;9.23;7.00;;;7.70;99.90;;;;;;5037198;28;20189;-66
2022/01/30 10:14:59;;;;;;;16.77;7.00;;;8.10;99.90;;;;;;5055441;28;20210;-65
2022/01/30 10:17:29;;;;;;;11.23;7.27;;;8.50;99.90;;;;;;5055142;28;20186;-66
2022/01/30 10:20:10;;;;;;;10.10;7.90;;;8.60;99.90;;;;;;5054908;28;20230;-65
2022/01/30 10:22:48;;;;;;;12.23;7.47;;;8.20;99.90;;;;;;5036765;28;20189;-65
2022/01/30 10:25:37;;;;;;;13.37;7.90;;;8.30;99.90;;;;;;5054906;28;20248;-65
2022/01/30 10:28:18;;;;;;;12.27;6.77;;;8.70;99.90;;;;;;5037011;28;20544;-66
2022/01/30 10:30:53;;;;;;;6.70;5.93;;;8.70;99.90;;;;;;5054759;28;20174;-66
2022/01/30 10:33:21;;;;;;;7.17;6.43;;;8.80;99.90;;;;;;5054620;28;20224;-66
2022/01/30 10:35:54;;;;;;;12.37;7.17;;;8.70;99.90;;;;;;5054437;28;20222;-66
2022/01/30 10:38:36;;;;;;;12.37;7.00;;;8.30;99.90;;;;;;5054696;28;20175;-66
2022/01/30 10:41:14;;;;;;;9.97;9.03;;;8.10;99.90;;;;;;5036811;28;20174;-65
2022/01/30 10:44:03;;;;;;;18.83;7.97;;;7.90;99.90;;;;;;5036301;28;20670;-66
2022/01/30 10:46:51;;;;;;;9.67;7.40;;;8.10;99.90;;;;;;5054553;28;20250;-65
2022/01/30 10:49:22;;;;;;;9.93;6.63;;;8.20;99.90;;;;;;5046185;28;20604;-65
2022/01/30 10:51:57;;;;;;;11.20;7.37;;;8.10;99.90;;;;;;5054282;28;20190;-66
2022/01/30 10:54:26;;;;;;;14.47;8.27;;;8.00;99.90;;;;;;5036600;28;20205;-66
2022/01/30 10:57:08;;;;;;;14.40;8.00;;;8.20;99.90;;;;;;5036445;28;20228;-66
2022/01/30 10:59:38;;;;;;;11.60;6.77;;;8.50;99.90;;;;;;5054193;28;20606;-66
2022/01/30 11:02:25;;;;;;;13.40;7.07;;;8.90;99.90;;;;;;5054141;28;20199;-66
2022/01/30 11:05:02;;;;;;;13.73;7.20;;;9.30;99.90;;;;;;5053935;28;20225;-64
2022/01/30 11:07:30;;;;;;;6.87;6.20;;;9.50;99.90;;;;;;5054284;28;20170;-67
2022/01/30 11:10:01;;;;;;;14.43;6.27;;;9.70;99.90;;;;;;5054099;28;20225;-66
2022/01/30 11:12:56;;;;;;;8.43;6.93;;;9.60;99.90;;;;;;5052245;28;20233;-66
2022/01/30 11:15:36;;;;;;;9.97;6.50;;;9.40;99.90;;;;;;5036292;28;20722;-66
2022/01/30 11:18:05;;;;;;;10.80;6.70;;;9.30;99.90;;;;;;5054061;28;20270;-66
2022/01/30 11:20:32;;;;;;;10.77;6.97;;;9.60;99.90;;;;;;5035961;28;20207;-66
2022/01/30 11:23:01;;;;;;;10.90;7.27;;;9.90;99.90;;;;;;5053599;28;20622;-66
2022/01/30 11:25:33;;;;;;;11.83;6.40;;;10.00;99.90;;;;;;5055074;28;20210;-65
2022/01/30 11:28:04;;;;;;;17.27;8.37;;;10.10;99.90;;;;;;5038158;28;20193;-67
2022/01/30 11:30:34;;;;;;;18.33;6.87;;;10.10;99.90;;;;;;5055412;28;20163;-67
2022/01/30 11:33:00;;;;;;;16.27;6.87;;;10.00;99.90;;;;;;5053354;28;20171;-66
2022/01/30 11:35:26;;;;;;;16.77;7.97;;;10.20;99.90;;;;;;5053674;28;20598;-66
2022/01/30 11:37:52;;;;;;;13.17;6.13;;;10.20;99.90;;;;;;5053368;28;20171;-66
2022/01/30 11:40:20;;;;;;;11.83;6.37;;;10.10;99.90;;;;;;5053548;28;20194;-66
2022/01/30 11:42:49;;;;;;;13.13;6.10;;;10.10;99.90;;;;;;5053200;28;20210;-66
2022/01/30 11:45:27;;;;;;;14.17;6.83;;;10.00;99.90;;;;;;5053412;28;20641;-66
2022/01/30 11:48:00;;;;;;;15.40;6.93;;;10.00;99.90;;;;;;5053424;28;20550;-66
2022/01/30 11:50:31;;;;;;;10.77;6.63;;;9.90;99.90;;;;;;5035584;28;20205;-66
2022/01/30 11:53:00;;;;;;;11.20;7.30;;;9.90;99.90;;;;;;5053069;28;20258;-66
2022/01/30 11:55:50;;;;;;;14.07;7.63;;;9.90;99.90;;;;;;5053198;28;20199;-66
2022/01/30 11:58:33;;;;;;;14.23;7.93;;;9.60;99.90;;;;;;5053338;28;20578;-66
2022/01/30 12:01:20;;;;;;;10.57;7.10;;;9.40;99.90;;;;;;5035191;28;20187;-66
2022/01/30 12:04:07;;;;;;;16.87;7.20;;;9.20;99.90;;;;;;5041597;28;20191;-66
2022/01/30 12:06:35;;;;;;;10.30;7.53;;;9.00;99.90;;;;;;5053133;28;20202;-66
2022/01/30 12:09:17;;;;;;;14.90;7.00;;;8.80;99.90;;;;;;5053044;28;20186;-66
2022/01/30 12:11:47;;;;;;;11.97;7.23;;;8.80;99.90;;;;;;5052079;28;20182;-66
2022/01/30 12:14:22;;;;;;;21.37;9.17;;;8.90;99.90;;;;;;5052618;28;20344;-66
2022/01/30 12:17:00;;;;;;;10.70;7.10;;;8.90;99.90;;;;;;5052760;28;20185;-66
2022/01/30 12:19:37;;;;;;;17.90;8.43;;;8.80;99.90;;;;;;5052712;28;20699;-66
2022/01/30 12:22:18;;;;;;;11.60;7.57;;;8.90;99.90;;;;;;5052489;28;20177;-66
2022/01/30 12:24:48;;;;;;;18.53;8.13;;;8.90;99.90;;;;;;5052550;28;20214;-66
2022/01/30 12:27:14;;;;;;;10.20;6.77;;;8.90;99.90;;;;;;5052723;28;20608;-66
2022/01/30 12:29:48;;;;;;;26.67;7.97;;;8.90;99.90;;;;;;5034409;28;20185;-66
2022/01/30 12:32:22;;;;;;;14.97;8.00;;;8.90;99.90;;;;;;5052532;28;20523;-66
2022/01/30 12:35:00;;;;;;;14.77;8.50;;;8.90;99.90;;;;;;5052255;28;20209;-67
2022/01/30 12:37:35;;;;;;;19.87;7.17;;;9.00;99.90;;;;;;5035431;28;20182;-67
2022/01/30 12:40:13;;;;;;;10.97;6.97;;;9.00;99.90;;;;;;5052916;28;20206;-66
2022/01/30 12:42:39;;;;;;;15.53;7.40;;;9.00;99.90;;;;;;5052070;28;20182;-66
2022/01/30 12:45:08;;;;;;;13.70;6.47;;;8.90;99.90;;;;;;5052219;28;20615;-66
2022/01/30 12:47:56;;;;;;;8.53;7.37;;;8.70;99.90;;;;;;5034349;28;20652;-66
2022/01/30 12:50:31;;;;;;;19.13;7.80;;;8.60;99.90;;;;;;5052229;28;20556;-66
2022/01/30 12:52:56;;;;;;;18.37;9.57;;;8.50;99.90;;;;;;5051919;28;20179;-66
2022/01/30 12:55:22;;;;;;;9.10;8.23;;;8.60;99.90;;;;;;5052307;28;20537;-66
2022/01/30 12:57:53;;;;;;;12.27;8.90;;;8.70;99.90;;;;;;5051971;28;20186;-66
2022/01/30 13:00:19;;;;;;;16.37;7.47;;;8.80;99.90;;;;;;5034186;28;20210;-66
2022/01/30 13:02:55;;;;;;;12.53;9.13;;;8.90;99.90;;;;;;5051589;28;20183;-66
2022/01/30 13:05:22;;;;;;;12.00;8.23;;;8.90;99.90;;;;;;5051906;28;20201;-65
2022/01/30 13:07:53;;;;;;;12.20;8.33;;;8.90;99.90;;;;;;5051686;28;20175;-66
2022/01/30 13:10:19;;;;;;;14.33;9.00;;;8.80;99.90;;;;;;5051966;28;20173;-66
2022/01/30 13:12:45;;;;;;;17.83;9.43;;;8.80;99.90;;;;;;5033122;28;20636;-66
2022/01/30 13:15:24;;;;;;;16.07;8.03;;;8.70;99.90;;;;;;5034024;28;20297;-66
2022/01/30 13:17:51;;;;;;;18.87;8.97;;;8.70;99.90;;;;;;5051583;28;20224;-66
2022/01/30 13:20:23;;;;;;;13.70;8.13;;;8.80;99.90;;;;;;5051709;28;20616;-66
2022/01/30 13:22:50;;;;;;;14.40;7.40;;;9.00;99.90;;;;;;5034275;28;20190;-67
2022/01/30 13:25:18;;;;;;;10.27;7.50;;;9.20;99.90;;;;;;5052041;28;20191;-67
2022/01/30 13:27:49;;;;;;;23.17;7.83;;;9.60;99.90;;;;;;5052053;28;20224;-67
2022/01/30 13:30:26;;;;;;;9.93;7.53;;;10.00;99.90;;;;;;5051675;28;20216;-65
2022/01/30 13:32:52;;;;;;;6.93;6.43;;;9.90;99.90;;;;;;5051284;28;20174;-66
2022/01/30 13:35:22;;;;;;;14.07;7.90;;;9.60;99.90;;;;;;5051070;28;20229;-66
2022/01/30 13:37:48;;;;;;;17.20;8.73;;;9.50;99.90;;;;;;5051326;28;20193;-66
2022/01/30 13:40:24;;;;;;;17.27;8.43;;;9.20;99.90;;;;;;5033516;28;20206;-66
2022/01/30 13:42:56;;;;;;;12.17;6.90;;;9.30;99.90;;;;;;5051072;28;20257;-66
2022/01/30 13:47:53;;;;;;;16.40;7.83;;;9.30;99.90;;;;;;5051196;28;20653;-66
2022/01/30 13:50:21;;;;;;;16.57;8.57;;;9.10;99.90;;;;;;5051509;28;20266;-65
2022/01/30 13:52:47;;;;;;;11.77;7.23;;;9.10;99.90;;;;;;5050943;28;20221;-66
2022/01/30 13:55:13;;;;;;;15.73;7.43;;;9.20;99.90;;;;;;5051279;28;20218;-66
2022/01/30 13:57:42;;;;;;;14.53;7.27;;;9.00;99.90;;;;;;5051393;28;20254;-65
2022/01/30 14:00:12;;;;;;;13.43;8.23;;;9.30;99.90;;;;;;5051274;28;20210;-66
2022/01/30 14:03:01;;;;;;;14.43;8.23;;;9.50;99.90;;;;;;5051131;28;20171;-66
2022/01/30 14:05:32;;;;;;;12.50;7.43;;;9.30;99.90;;;;;;5051235;28;20697;-66